INDIA METEOROLOGICAL DEPARTMENT, R.M.C. NEW DELHI
Dated:17-12-2018
METARS


Ahmedabad  
VAAH 161930Z 04006KT 4000 FU BKN080 17/05 Q1019 NOSIG=
Allahabad  
VEAB 161930Z VRB02KT 2000 BR SKC 11/09 Q1020 NOSIG=
Amritsar   
VIAR 161930Z 00000KT 3000 BR NSC 06/06 Q1022 NOSIG=
Aurangabad 
VAAU 161800Z 34002KT 6000 NSC 16/06 Q1019 NOSIG=
Bangalore  
VOBL 161930Z VRB03KT 6000 FEW012 SCT080 18/12 Q1017 NOSIG=
Bhopal     
VABP 161800Z 07006KT 5000 HZ NSC 12/05 Q1021 NOSIG=
Bhubaneswar
VEBS 161930Z 35006KT 3500 -RA BKN015 OVC090 19/14 Q1016 NOSIG=
Chennai    
VOMM 161930Z 34008G18KT 4500 BR SCT018 FEW025CB BKN100 24/20 Q1011 NOSIG=
Coimbatore 
VOCB 161930Z VRB02KT 3000 HZ NSC 22/16 Q1014 NOSIG=
Colombo    
VCBI 161940Z 05004KT 6000 NSC 22/21 Q1012 NOSIG=
Delhi      
VIDP 161930Z 00000KT 2200 BR NSC 12/09 Q1021 NOSIG=
Gauhati    
VEGT 161930Z 00000KT 2500 BR SCT018 BKN100 18/16 Q1019 NOSIG=
Gaya       
VEGY 161930Z NIL=
Goa        
VOGO 161930Z 02003KT 4000 HZ FEW020 FEW100 24/18 Q1012 NOSIG=
Hyderabad  
VOHS 161930Z 05006KT 4000 HZ SCT015 SCT100 20/14 Q1016 NOSIG=
Indore     
VAID 161800Z 34006KT 4000 HZ NSC 13/07 Q1021 NOSIG=
Jaipur     
VIJP 161930Z 00000KT 2500 HZ FEW035 SCT100 13/03 Q1022 NOSIG=
Kochi      
VOCI 161930Z 08004KT 3500 BR FEW015 SCT090 24/22 Q1012 NOSIG=
Kolkata    
VECC 161930Z 00000KT 2400 -RA SCT018 BKN090 19/16 Q1017 NOSIG=
Kozhikode  
VOCL 161930Z 00000KT 5000 BR FEW012 25/21 Q1011 NOSIG=
Lucknow    
VILK 161930Z 00000KT 1500 R27/2000 RMID/2000 R09/2000 BR NSC 11/07 Q1020 NOSIG=
Madurai    
VOMD 161800Z 20003KT 4000 HZ FEW020 25/19 Q1013 NOSIG=
Mumbai     
VABB 161930Z 08009KT 3000 FU NSC 24/09 Q1014 NOSIG=
Nagpur     
VANP 161930Z 36002KT 2500 HZ FEW020 BKN100 20/09 Q1017 NOSIG=
Patna      
VEPT 161930Z NIL=
Raipur     
VERP 161800Z 06008KT 4000 HZ FEW025 BKN100 20/09 Q1019 NOSIG=
Ranchi     
VERC 161900Z 00000KT 2000 -RA SCT018 BKN100 16/14 Q1021 NOSIG=
Trichy     
VOTR 161930Z 20003KT 3500 BR FEW016 SCT100 24/20 Q1010 NOSIG=
Trivandrum 
VOTV 161930Z 27003KT 4000 HZ FEW015 28/24 Q1011 NOSIG=
Varanasi   
VEBN 161830Z 27002KT 2200 HZ FEW100 14/09 Q1019 NOSIG=
Vizag      
VOVZ 161830Z 02013G24KT 5000 DZ FEW014 SCT016 OVC080 21/15 Q1012 NOSIG =
Male       
VRMM 161900Z 28005KT 9999 FEW018TCU BKN270 28/22 Q1012 NOSIG=
Gan        
VRMG 161900Z 31004KT 9999 SCT017TCU BKN110 27/24 Q1012 TEMPO FEW018CB=
Kathmandu  
VNKT 161930Z NIL=
Dhaka      
VGHS 161930Z 29003KT 3200 HZ SCT012 BKN100 21/17 Q1017 TEMPO RA=
Colombo    
VCBI 161940Z 05004KT 6000 NSC 22/21 Q1012 NOSIG=
Karachi    
OPKC 161825Z 36009KT 6000 NSC 16/M01 Q1022 NOSIG=
Lahore     
OPLA 161829Z 00000KT 4000 FU NSC 12/06 Q1023 RMK QFE997 RMK A30.19=
Leh        
VILH 161800Z VRB01KT 6000 SKC -1/-1 Q1037 NOSIG=
Sri Nagar  
VISR 161930Z VRB01KT 5000 FU SKC -1/-6 Q1031 NOSIG=
Jammu      
VIJU 161930Z 01004KT 6000 SKC 09/06 Q1022 NOSIG=
Jodhpur    
VIJO 161930Z VRB02KT 6000 SCT100 13/-1 Q1022 NOSIG=
Jaisalmer  
VIJR 161930Z VRB02KT 6000 SKC 10/-3 Q1022 NOSIG=
Bhuj-Rudra 
VABJ 161800Z VRB02KT 6000 FEW040 BKN100 18/01 Q1020 NOSIG=
Gorakhpur  
VEGK 161930Z 00000KT 2000 BR SKC 09/09 Q1020 NOSIG=
Agra       
VIAG 161930Z 00000KT 1500 BR SCT100 10/09 Q1021 BECMG 1000=
Bagdogra   
VEBD 161800Z VRB01KT 6000 SKC 11/11 Q1019 NOSIG=
Gwalior    
VIGR 161800Z VRB02KT 2000 BR SCT100 SCT250 10/08 Q1022 NOSIG=
Pune       
VAPO 161930Z VRB02KT 6000 FEW250 15/04 Q1019 NOSIG =
Chandigarh 
VICG 161930Z VRB02KT 4000 BR SKC 08/08 Q1022 NOSIG=
Jamnagar   
VAJM 161930Z 08007KT 6000 FEW030 BKN100 19/04 Q1018 NOSIG=